Rechercher aéroport 
image banner adimage banner adimage banner ad
image banner ad

29CN - Miller's Mother Lode

Situé à Georgetown, United States

ICAO - 29CN, IATA -

Données fournies par Airmate  

Information générale

Coordonnées: N38°50'60" W120°50'4"
Élévation : 2400 feet MSL.
Variation magnétique : 16° East
Voir autres Aéroports à California

Données opérationnelles

Special qualification required
Heure actuelle UTC:
Heure actuelle locale:
Météo à : KPVF - Placerville ( 16 km )
METAR: KPVF 270455Z AUTO 11004KT 10SM SCT090 23/00 A3005 RMK AO1
Voir NOTAMs / SUP AIP / TFR affectant cet aéroport [VIEW]
Fréquences de communication: [VIEW]

Pistes:

Identifiant RWYQFULongueur (ft)Largeur (ft)SurfaceLDA (ft)
17130060EARTH
35130060EARTH

Coordonnées de l'aéroport

Adresse: Georgetown United States

Vue satellite de 29CN